Time;durP1;ratioP1;P1;durP2;ratioP2;P2;SDS_P1;SDS_P2;PMS_P1;PMS_P2;Temp;Humidity;BMP_temperature;BMP_pressure;BME280_temperature;BME280_humidity;BME280_pressure;Samples;Min_cycle;Max_cycle;Signal;HPM_P1;HPM_P2
2024/01/10 00:01:19;;;;;;;16.20;11.48;;;;;;;-0.71;100.00;93166.66;5034920;28;20046;-77
2024/01/10 00:03:44;;;;;;;21.30;13.27;;;;;;;-0.76;100.00;93162.13;5028398;28;20029;-77
2024/01/10 00:06:11;;;;;;;168.52;14.20;;;;;;;-0.74;100.00;93162.72;5023977;28;20523;-77
2024/01/10 00:08:37;;;;;;;205.25;14.82;;;;;;;-0.78;100.00;93168.44;5022370;28;20096;-77
2024/01/10 00:11:03;;;;;;;178.38;15.40;;;;;;;-0.83;100.00;93158.78;5019756;28;20374;-77
2024/01/10 00:13:31;;;;;;;45.00;12.65;;;;;;;-0.81;100.00;93159.38;5028101;28;20036;-77
2024/01/10 00:15:58;;;;;;;20.10;12.23;;;;;;;-0.78;100.00;93160.75;5018672;28;20037;-77
2024/01/10 00:18:24;;;;;;;19.30;11.85;;;;;;;-0.77;100.00;93159.72;5027277;28;20530;-77
2024/01/10 00:20:53;;;;;;;19.80;12.95;;;;;;;-0.78;100.00;93158.94;5015014;28;20116;-77
2024/01/10 00:23:20;;;;;;;19.67;13.40;;;;;;;-0.77;100.00;93160.53;5025632;28;20053;-77
2024/01/10 00:25:46;;;;;;;19.23;12.40;;;;;;;-0.79;100.00;93157.34;5022960;28;20104;-77
2024/01/10 00:28:12;;;;;;;18.35;12.18;;;;;;;-0.74;100.00;93159.34;5020772;28;20048;-77
2024/01/10 00:30:38;;;;;;;41.35;12.88;;;;;;;-0.69;100.00;93157.75;5027871;28;20029;-77
2024/01/10 00:33:04;;;;;;;20.13;12.57;;;;;;;-0.77;100.00;93147.66;5014248;28;20030;-77
2024/01/10 00:35:30;;;;;;;20.75;12.77;;;;;;;-0.75;100.00;93160.31;5026106;28;20056;-77
2024/01/10 00:37:56;;;;;;;20.48;12.38;;;;;;;-0.76;100.00;93156.19;5015250;28;20034;-77
2024/01/10 00:40:22;;;;;;;19.40;12.23;;;;;;;-0.70;100.00;93152.78;5012278;28;20025;-77
2024/01/10 00:42:48;;;;;;;17.52;12.27;;;;;;;-0.55;100.00;93157.72;5020151;28;20424;-78
2024/01/10 00:45:14;;;;;;;18.42;12.15;;;;;;;-0.66;100.00;93154.75;5021394;28;20037;-77
2024/01/10 00:47:39;;;;;;;18.77;12.45;;;;;;;-0.71;100.00;93149.44;5022110;28;20128;-78
2024/01/10 00:50:05;;;;;;;20.27;12.98;;;;;;;-0.71;100.00;93154.59;5023066;28;20103;-77
2024/01/10 00:52:31;;;;;;;18.48;12.48;;;;;;;-0.70;100.00;93153.63;5019771;28;20030;-77
2024/01/10 00:54:57;;;;;;;18.88;12.65;;;;;;;-0.69;100.00;93146.69;5024445;28;20037;-77
2024/01/10 00:57:22;;;;;;;18.42;11.77;;;;;;;-0.62;100.00;93152.59;5015802;28;20045;-77
2024/01/10 00:59:48;;;;;;;19.83;12.27;;;;;;;-0.67;100.00;93155.78;5020434;28;20040;-78
2024/01/10 01:02:13;;;;;;;18.80;12.05;;;;;;;-0.71;100.00;93154.59;5020069;28;20413;-77
2024/01/10 01:04:39;;;;;;;19.52;12.38;;;;;;;-0.74;100.00;93159.34;5022409;28;20665;-77
2024/01/10 01:07:05;;;;;;;19.42;13.30;;;;;;;-0.71;100.00;93159.72;5022614;28;20497;-77
2024/01/10 01:09:30;;;;;;;18.90;12.27;;;;;;;-0.70;100.00;93161.31;5022493;28;20095;-77
2024/01/10 01:11:56;;;;;;;18.52;12.25;;;;;;;-0.58;100.00;93164.06;5014773;28;20490;-77
2024/01/10 01:14:21;;;;;;;17.17;11.30;;;;;;;-0.67;100.00;93166.06;5021531;28;20762;-77
2024/01/10 01:16:47;;;;;;;19.23;13.40;;;;;;;-0.74;100.00;93175.56;5022546;28;20057;-77
2024/01/10 01:19:13;;;;;;;18.00;11.88;;;;;;;-0.75;100.00;93173.19;5022112;28;20048;-77
2024/01/10 01:21:38;;;;;;;20.92;13.25;;;;;;;-0.77;100.00;93175.16;5022657;28;20541;-77
2024/01/10 01:24:04;;;;;;;28.75;13.38;;;;;;;-0.81;100.00;93161.94;5019724;28;20057;-77
2024/01/10 01:26:29;;;;;;;16.20;10.73;;;;;;;-0.82;100.00;93162.91;5026777;28;20041;-77
2024/01/10 01:28:55;;;;;;;19.33;13.02;;;;;;;-0.81;100.00;93172.22;5022905;28;20361;-77
2024/01/10 01:31:20;;;;;;;20.35;12.77;;;;;;;-0.83;100.00;93166.47;5034633;28;20029;-77
2024/01/10 01:33:46;;;;;;;20.33;12.40;;;;;;;-0.85;100.00;93174.38;5022804;28;20583;-77
2024/01/10 01:36:12;;;;;;;104.90;13.70;;;;;;;-0.76;100.00;93180.13;5021318;28;20459;-77
2024/01/10 01:38:37;;;;;;;26.92;14.07;;;;;;;-0.82;100.00;93175.75;5022862;28;20037;-77
2024/01/10 01:41:03;;;;;;;133.70;13.73;;;;;;;-0.85;100.00;93168.47;5026991;28;20087;-77
2024/01/10 01:43:28;;;;;;;147.35;15.20;;;;;;;-0.92;100.00;93177.97;5026597;28;20107;-77
2024/01/10 01:45:56;;;;;;;434.83;21.90;;;;;;;-0.99;100.00;93172.81;5019722;28;20044;-77
2024/01/10 01:48:23;;;;;;;114.22;14.35;;;;;;;-1.00;100.00;93168.66;5026462;28;20091;-77
2024/01/10 01:51:04;;;;;;;300.33;19.08;;;;;;;-1.02;100.00;93169.84;5027046;28;20033;-77
2024/01/10 01:53:30;;;;;;;270.23;17.88;;;;;;;-0.99;100.00;93177.97;5020244;28;20033;-77
2024/01/10 01:55:55;;;;;;;453.63;23.02;;;;;;;-1.01;100.00;93176.56;5023764;28;20050;-77
2024/01/10 01:58:22;;;;;;;307.52;18.70;;;;;;;-1.01;100.00;93176.56;5022897;28;20060;-77
2024/01/10 02:00:48;;;;;;;415.77;18.05;;;;;;;-0.90;100.00;93186.25;5026358;28;20062;-77
2024/01/10 02:03:14;;;;;;;418.38;20.55;;;;;;;-0.93;100.00;93173.78;5019906;28;20575;-76
2024/01/10 02:05:40;;;;;;;723.13;30.10;;;;;;;-0.95;100.00;93173.19;5027040;28;20053;-77
2024/01/10 02:08:06;;;;;;;385.83;20.17;;;;;;;-0.95;100.00;93183.47;5027276;28;20054;-77
2024/01/10 02:10:32;;;;;;;597.92;25.80;;;;;;;-0.94;100.00;93185.84;5027545;28;20487;-77
2024/01/10 02:12:57;;;;;;;80.35;14.30;;;;;;;-1.02;100.00;93174.97;5021942;28;20038;-77
2024/01/10 02:15:24;;;;;;;261.55;17.52;;;;;;;-0.97;100.00;93175.97;5024147;28;20040;-78
2024/01/10 02:17:49;;;;;;;172.15;16.35;;;;;;;-0.94;100.00;93177.38;5026904;28;20034;-78
2024/01/10 02:20:20;;;;;;;98.15;13.98;;;;;;;-0.93;100.00;93174.56;5024322;28;20044;-78
2024/01/10 02:22:46;;;;;;;124.28;14.23;;;;;;;-0.95;100.00;93173.97;5027831;28;20091;-78
2024/01/10 02:25:13;;;;;;;20.90;12.77;;;;;;;-0.91;100.00;93174.38;5023499;28;20029;-77
2024/01/10 02:27:41;;;;;;;78.38;13.55;;;;;;;-0.90;100.00;93181.91;5024665;28;20038;-77
2024/01/10 02:30:08;;;;;;;104.32;14.05;;;;;;;-0.85;100.00;93182.09;5023160;28;20092;-77
2024/01/10 02:32:34;;;;;;;224.30;16.33;;;;;;;-0.93;100.00;93171.22;5024127;28;20563;-77
2024/01/10 02:35:00;;;;;;;59.90;14.82;;;;;;;-0.93;100.00;93176.38;5020630;28;20121;-77
2024/01/10 02:37:25;;;;;;;174.80;15.95;;;;;;;-0.96;100.00;93166.50;5021909;28;20478;-77
2024/01/10 02:39:51;;;;;;;218.57;15.27;;;;;;;-0.94;100.00;93170.44;5008019;28;20045;-77
2024/01/10 02:42:17;;;;;;;81.32;13.68;;;;;;;-0.91;100.00;93169.25;5022640;28;20571;-77
2024/01/10 02:44:43;;;;;;;194.07;16.15;;;;;;;-0.94;100.00;93169.66;5030165;28;20045;-77
2024/01/10 02:47:09;;;;;;;168.43;16.55;;;;;;;-0.93;100.00;93168.66;5030741;28;20071;-77
2024/01/10 02:49:35;;;;;;;147.05;13.82;;;;;;;-0.86;100.00;93159.16;5028791;28;20029;-77
2024/01/10 02:52:01;;;;;;;110.90;12.63;;;;;;;-0.81;100.00;93158.56;5011631;28;20497;-77
2024/01/10 02:54:26;;;;;;;42.85;13.18;;;;;;;-0.84;100.00;93154.59;5030151;28;20503;-77
2024/01/10 02:56:52;;;;;;;85.63;14.02;;;;;;;-0.77;100.00;93164.88;5029358;28;20064;-77
2024/01/10 02:59:17;;;;;;;120.78;13.45;;;;;;;-0.79;100.00;93162.50;5026234;28;20037;-77
2024/01/10 03:01:43;;;;;;;132.65;14.00;;;;;;;-0.85;100.00;93153.81;5028511;28;20026;-77
2024/01/10 03:04:09;;;;;;;41.70;14.48;;;;;;;-0.88;100.00;93153.41;5026511;28;20136;-77
2024/01/10 03:06:35;;;;;;;25.50;13.70;;;;;;;-0.89;100.00;93154.41;5029713;28;20035;-77
2024/01/10 03:09:00;;;;;;;22.13;13.15;;;;;;;-0.89;100.00;93149.28;5029530;28;20038;-77
2024/01/10 03:11:26;;;;;;;28.35;13.35;;;;;;;-0.88;100.00;93148.28;5025859;28;20033;-77
2024/01/10 03:14:01;;;;;;;45.25;13.38;;;;;;;-0.89;100.00;93151.84;5029189;28;20263;-77
2024/01/10 03:16:27;;;;;;;20.75;13.85;;;;;;;-0.91;100.00;93148.69;5029940;28;20029;-77
2024/01/10 03:18:52;;;;;;;22.90;14.18;;;;;;;-0.85;100.00;93158.19;5029955;28;20091;-77
2024/01/10 03:21:24;;;;;;;28.45;13.75;;;;;;;-0.87;100.00;93155.00;5027672;28;20561;-77
2024/01/10 03:23:51;;;;;;;173.32;16.38;;;;;;;-0.87;100.00;93152.44;5029429;28;20516;-77
2024/01/10 03:26:17;;;;;;;23.65;13.65;;;;;;;-0.85;100.00;93147.91;5029043;28;20073;-77
2024/01/10 03:28:42;;;;;;;27.42;14.48;;;;;;;-0.82;100.00;93149.28;5029617;28;20084;-77
2024/01/10 03:31:11;;;;;;;20.55;13.93;;;;;;;-0.81;100.00;93141.38;5028248;28;20046;-77
2024/01/10 03:33:36;;;;;;;21.40;13.50;;;;;;;-0.82;100.00;93142.34;5018354;28;20109;-77
2024/01/10 03:36:02;;;;;;;21.60;14.07;;;;;;;-0.82;100.00;93141.56;5018456;28;20120;-77
2024/01/10 03:38:28;;;;;;;21.33;13.30;;;;;;;-0.83;100.00;93138.19;5021983;28;20060;-77
2024/01/10 03:40:53;;;;;;;40.40;12.50;;;;;;;-0.74;100.00;93138.78;5029436;28;20049;-77
2024/01/10 03:43:19;;;;;;;24.30;13.48;;;;;;;-0.76;100.00;93138.19;5025940;28;20048;-77
2024/01/10 03:45:45;;;;;;;23.60;13.23;;;;;;;-0.80;100.00;93145.50;5013840;28;20080;-77
2024/01/10 03:48:10;;;;;;;20.83;12.93;;;;;;;-0.78;100.00;93140.97;5027864;28;20041;-77
2024/01/10 03:50:36;;;;;;;26.10;14.00;;;;;;;-0.79;100.00;93134.22;5022363;28;20029;-77
2024/01/10 03:53:01;;;;;;;89.93;15.40;;;;;;;-0.73;100.00;93138.56;5021984;28;20120;-77
2024/01/10 03:55:27;;;;;;;37.38;14.65;;;;;;;-0.81;100.00;93137.97;5028669;28;20348;-77
2024/01/10 03:57:52;;;;;;;28.92;13.23;;;;;;;-0.81;100.00;93138.78;5022098;28;20045;-77
2024/01/10 04:00:18;;;;;;;33.83;13.18;;;;;;;-0.79;100.00;93136.78;5008826;28;20037;-77
2024/01/10 04:02:44;;;;;;;44.25;14.75;;;;;;;-0.84;100.00;93150.25;5016656;28;20042;-77
2024/01/10 04:05:11;;;;;;;23.38;13.82;;;;;;;-0.88;100.00;93140.56;5022226;28;20489;-77
2024/01/10 04:07:41;;;;;;;26.27;14.02;;;;;;;-0.87;100.00;93142.94;5020945;28;20095;-77
2024/01/10 04:10:10;;;;;;;23.55;12.98;;;;;;;-0.89;100.00;93137.22;5022343;28;20044;-77
2024/01/10 04:12:38;;;;;;;26.08;14.30;;;;;;;-0.84;100.00;93145.09;5022425;28;20086;-77
2024/01/10 04:15:05;;;;;;;20.55;13.23;;;;;;;-0.86;100.00;93141.16;5027544;28;20401;-77
2024/01/10 04:17:30;;;;;;;25.65;13.32;;;;;;;-0.88;100.00;93143.94;5021908;28;20076;-77
2024/01/10 04:19:57;;;;;;;26.48;14.68;;;;;;;-0.91;100.00;93143.53;5017267;28;20108;-77
2024/01/10 04:22:23;;;;;;;26.05;15.20;;;;;;;-0.89;100.00;93146.72;5021674;28;20044;-77
2024/01/10 04:24:49;;;;;;;25.88;14.75;;;;;;;-0.90;100.00;93145.09;5022619;28;20037;-77
2024/01/10 04:27:15;;;;;;;83.00;15.40;;;;;;;-0.82;100.00;93146.69;5020137;28;20048;-77
2024/01/10 04:29:41;;;;;;;72.40;14.35;;;;;;;-0.83;100.00;93148.50;5026449;28;20485;-77
2024/01/10 04:32:07;;;;;;;30.58;14.18;;;;;;;-0.86;100.00;93143.72;4999601;28;20033;-77
2024/01/10 04:34:33;;;;;;;58.50;12.55;;;;;;;-0.80;100.00;93142.94;5022439;28;20544;-77
2024/01/10 04:36:58;;;;;;;34.20;14.65;;;;;;;-0.88;100.00;93130.28;5017323;28;20041;-77
2024/01/10 04:39:24;;;;;;;64.20;15.13;;;;;;;-0.79;100.00;93146.28;5024824;28;20048;-77
2024/01/10 04:41:50;;;;;;;81.47;15.50;;;;;;;-0.80;100.00;93142.94;5022144;28;20401;-77
2024/01/10 04:44:15;;;;;;;40.13;14.82;;;;;;;-0.85;100.00;93138.41;5022787;28;20044;-76
2024/01/10 04:46:41;;;;;;;52.22;15.52;;;;;;;-0.85;100.00;93143.53;5021602;28;20041;-76
2024/01/10 04:49:07;;;;;;;52.10;15.10;;;;;;;-0.85;100.00;93142.75;5022693;28;20041;-76
2024/01/10 04:51:33;;;;;;;117.30;15.85;;;;;;;-0.83;100.00;93140.78;5020655;28;20045;-76
2024/01/10 04:53:59;;;;;;;80.95;16.33;;;;;;;-0.84;100.00;93144.31;5021090;28;20501;-76
2024/01/10 04:56:25;;;;;;;46.75;16.45;;;;;;;-0.88;100.00;93138.00;5020599;28;20045;-77
2024/01/10 04:58:51;;;;;;;61.40;14.70;;;;;;;-0.89;100.00;93131.28;5024548;28;20606;-76
2024/01/10 05:01:17;;;;;;;24.55;14.20;;;;;;;-0.85;100.00;93142.75;5025703;28;20061;-76
2024/01/10 05:03:43;;;;;;;29.75;15.80;;;;;;;-0.92;100.00;93141.97;5022198;28;20559;-76
2024/01/10 05:06:09;;;;;;;32.63;13.65;;;;;;;-0.86;100.00;93146.28;5026929;28;20033;-76
2024/01/10 05:08:34;;;;;;;23.15;14.35;;;;;;;-0.94;100.00;93141.38;5024347;28;20045;-76
2024/01/10 05:11:00;;;;;;;28.50;14.32;;;;;;;-0.96;100.00;93145.94;5024833;28;20038;-78
2024/01/10 05:13:26;;;;;;;24.00;13.48;;;;;;;-0.96;100.00;93154.41;5024900;28;20032;-78
2024/01/10 05:15:51;;;;;;;22.70;13.70;;;;;;;-0.96;100.00;93156.22;5025772;28;20497;-77
2024/01/10 05:18:18;;;;;;;25.75;14.63;;;;;;;-0.95;100.00;93160.34;5026583;28;20037;-77
2024/01/10 05:20:44;;;;;;;24.58;14.35;;;;;;;-0.96;100.00;93151.06;5008573;28;20040;-78
2024/01/10 05:23:10;;;;;;;23.52;12.98;;;;;;;-0.97;100.00;93160.53;5029163;28;20038;-80
2024/01/10 05:25:36;;;;;;;22.73;13.35;;;;;;;-0.99;100.00;93161.72;5023740;28;20029;-76
2024/01/10 05:28:02;;;;;;;24.45;14.50;;;;;;;-0.98;100.00;93161.53;5023299;28;20056;-76
2024/01/10 05:30:27;;;;;;;25.95;14.10;;;;;;;-0.96;100.00;93161.34;5025544;28;20034;-76
2024/01/10 05:32:53;;;;;;;24.23;14.65;;;;;;;-0.95;100.00;93163.69;5023969;28;20408;-75
2024/01/10 05:35:19;;;;;;;25.55;13.88;;;;;;;-0.95;100.00;93168.06;5026512;28;20075;-77
2024/01/10 05:37:45;;;;;;;25.25;13.82;;;;;;;-0.94;100.00;93169.66;5022599;28;20060;-77
2024/01/10 05:40:11;;;;;;;24.73;14.70;;;;;;;-0.94;100.00;93169.66;5021736;28;20066;-81
2024/01/10 05:42:37;;;;;;;27.50;14.32;;;;;;;-0.93;100.00;93166.09;5027286;28;20058;-80
2024/01/10 05:45:04;;;;;;;20.88;12.60;;;;;;;-0.80;100.00;93176.34;5030033;28;20051;-83
2024/01/10 05:47:30;;;;;;;23.58;13.73;;;;;;;-0.83;100.00;93169.06;5032557;28;20101;-81
2024/01/10 05:49:56;;;;;;;22.23;12.77;;;;;;;-0.77;100.00;93178.50;5021946;28;20029;-80
2024/01/10 05:52:22;;;;;;;26.80;15.23;;;;;;;-0.78;100.00;93179.53;5033963;28;20040;-81
2024/01/10 05:54:48;;;;;;;24.25;14.43;;;;;;;-0.88;100.00;93174.78;5027183;28;20033;-82
2024/01/10 05:57:14;;;;;;;54.95;14.93;;;;;;;-0.88;100.00;93176.53;5030850;28;20037;-81
2024/01/10 05:59:40;;;;;;;30.67;15.27;;;;;;;-0.89;100.00;93177.56;5030113;28;20030;-81
2024/01/10 06:02:06;;;;;;;45.55;16.13;;;;;;;-0.88;100.00;93179.13;5026394;28;20402;-82
2024/01/10 06:04:31;;;;;;;27.75;14.88;;;;;;;-0.91;100.00;93179.53;5027747;28;20040;-79
2024/01/10 06:06:58;;;;;;;24.45;14.40;;;;;;;-0.78;100.00;93194.94;5028717;28;20065;-80
2024/01/10 06:09:24;;;;;;;67.20;15.00;;;;;;;-0.75;100.00;93191.97;5030789;28;20485;-79
2024/01/10 06:11:50;;;;;;;55.58;14.30;;;;;;;-0.68;100.00;93186.81;5026748;28;20125;-79
2024/01/10 06:14:16;;;;;;;76.20;15.35;;;;;;;-0.75;100.00;93184.25;5029886;28;20029;-83
2024/01/10 06:16:41;;;;;;;68.18;16.00;;;;;;;-0.74;100.00;93196.13;5030591;28;20040;-80
2024/01/10 06:19:07;;;;;;;179.65;16.92;;;;;;;-0.79;100.00;93195.91;5030139;28;20997;-80
2024/01/10 06:21:33;;;;;;;129.45;16.95;;;;;;;-0.86;100.00;93187.44;5036511;28;20064;-82
2024/01/10 06:23:58;;;;;;;152.68;15.90;;;;;;;-0.80;100.00;93193.56;5017334;28;20517;-81
2024/01/10 06:26:24;;;;;;;78.85;16.23;;;;;;;-0.80;100.00;93196.13;5036337;28;20052;-80
2024/01/10 06:28:49;;;;;;;162.43;16.50;;;;;;;-0.85;100.00;93194.16;5037417;28;20033;-81
2024/01/10 06:31:15;;;;;;;89.22;15.48;;;;;;;-0.81;100.00;93189.41;5024343;28;20089;-81
2024/01/10 06:33:41;;;;;;;56.33;14.10;;;;;;;-0.79;100.00;93192.56;5027843;28;20034;-79
2024/01/10 06:36:07;;;;;;;169.18;17.15;;;;;;;-0.84;100.00;93193.16;5027418;28;20124;-80
2024/01/10 06:38:33;;;;;;;69.60;13.75;;;;;;;-0.80;100.00;93196.91;5028247;28;20037;-80
2024/01/10 06:40:58;;;;;;;28.17;14.23;;;;;;;-0.74;100.00;93195.34;5028280;28;20039;-81
2024/01/10 06:43:24;;;;;;;40.97;13.73;;;;;;;-0.82;100.00;93201.47;5023414;28;20065;-81
2024/01/10 06:45:49;;;;;;;27.88;12.73;;;;;;;-0.88;100.00;93199.69;5028254;28;20123;-81
2024/01/10 06:48:15;;;;;;;23.52;13.25;;;;;;;-0.87;100.00;93203.84;5032501;28;20493;-80
2024/01/10 06:50:41;;;;;;;25.65;13.07;;;;;;;-0.90;100.00;93210.19;5030313;28;20034;-80
2024/01/10 06:53:07;;;;;;;20.23;10.57;;;;;;;-0.85;100.00;93207.81;5028344;28;20484;-80
2024/01/10 06:55:33;;;;;;;22.10;11.82;;;;;;;-0.86;100.00;93208.00;5028395;28;20037;-79
2024/01/10 06:57:59;;;;;;;26.55;12.48;;;;;;;-0.90;100.00;93202.47;5030719;28;20675;-79
2024/01/10 07:00:26;;;;;;;22.08;12.77;;;;;;;-0.95;100.00;93198.91;5024711;28;20107;-79
2024/01/10 07:02:51;;;;;;;21.92;12.25;;;;;;;-0.88;100.00;93215.09;5030362;28;20036;-79
2024/01/10 07:05:17;;;;;;;18.40;11.02;;;;;;;-0.91;100.00;93203.44;5031235;28;20041;-79
2024/01/10 07:07:43;;;;;;;17.35;11.02;;;;;;;-0.89;100.00;93203.25;5028068;28;20041;-79
2024/01/10 07:10:10;;;;;;;19.77;11.82;;;;;;;-0.94;100.00;93205.63;5029560;28;20350;-79
2024/01/10 07:12:36;;;;;;;18.13;10.63;;;;;;;-0.86;100.00;93215.69;5008856;28;20025;-78
2024/01/10 07:15:04;;;;;;;21.70;12.07;;;;;;;-0.90;100.00;93212.75;5033197;28;20099;-79
2024/01/10 07:17:30;;;;;;;25.33;12.80;;;;;;;-0.89;100.00;93218.69;5032110;28;20484;-78
2024/01/10 07:19:58;;;;;;;19.25;11.55;;;;;;;-0.89;100.00;93216.09;5029260;28;20061;-78
2024/01/10 07:22:24;;;;;;;21.52;12.18;;;;;;;-0.91;100.00;93225.78;5029851;28;20045;-78
2024/01/10 07:24:50;;;;;;;21.30;11.77;;;;;;;-0.91;100.00;93221.44;5031924;28;20029;-78
2024/01/10 07:27:15;;;;;;;19.33;11.43;;;;;;;-0.87;100.00;93224.41;5031660;28;20052;-78
2024/01/10 07:29:41;;;;;;;22.10;12.13;;;;;;;-0.90;100.00;93222.22;5030484;28;20050;-78
2024/01/10 07:32:11;;;;;;;20.08;10.63;;;;;;;-0.93;100.00;93223.41;5031130;28;20136;-78
2024/01/10 07:34:37;;;;;;;19.55;11.40;;;;;;;-0.97;100.00;93229.94;5031022;28;20033;-77
2024/01/10 07:37:03;;;;;;;17.60;9.80;;;;;;;-0.94;100.00;93231.34;5029669;28;20040;-78
2024/01/10 07:39:29;;;;;;;20.10;10.80;;;;;;;-0.97;100.00;93226.56;5032162;28;20041;-77
2024/01/10 07:41:55;;;;;;;20.15;12.13;;;;;;;-0.94;100.00;93241.63;5025639;28;20038;-78
2024/01/10 07:44:21;;;;;;;19.05;10.43;;;;;;;-0.86;100.00;93238.84;5030983;28;20127;-78
2024/01/10 07:46:47;;;;;;;18.83;11.55;;;;;;;-0.91;100.00;93238.66;5017706;28;20207;-79
2024/01/10 07:49:12;;;;;;;20.70;12.02;;;;;;;-0.94;100.00;93244.19;5025223;28;20045;-80
2024/01/10 07:51:38;;;;;;;21.27;12.35;;;;;;;-0.94;100.00;93244.19;5019538;28;21031;-78
2024/01/10 07:54:03;;;;;;;18.02;11.23;;;;;;;-0.91;100.00;93246.34;5028062;28;20048;-78
2024/01/10 07:56:30;;;;;;;20.67;12.25;;;;;;;-0.93;100.00;93245.75;5025563;28;20029;-78
2024/01/10 07:58:58;;;;;;;20.48;10.88;;;;;;;-0.89;100.00;93259.81;5019174;28;20059;-78
2024/01/10 08:01:24;;;;;;;21.23;11.55;;;;;;;-0.91;100.00;93256.63;5025193;28;20033;-78
2024/01/10 08:03:50;;;;;;;18.65;10.85;;;;;;;-0.93;100.00;93254.25;5026896;28;20044;-78
2024/01/10 08:06:15;;;;;;;18.33;11.20;;;;;;;-0.89;100.00;93260.59;5028700;28;20521;-78
2024/01/10 08:08:41;;;;;;;18.85;11.10;;;;;;;-0.91;100.00;93251.50;5025883;28;20053;-78
2024/01/10 08:11:06;;;;;;;25.00;12.02;;;;;;;-0.91;100.00;93256.63;5027534;28;20033;-78
2024/01/10 08:13:32;;;;;;;21.50;11.25;;;;;;;-0.89;100.00;93259.81;5028276;28;20091;-78
2024/01/10 08:15:58;;;;;;;18.88;12.30;;;;;;;-0.87;100.00;93258.63;5004169;28;20033;-78
2024/01/10 08:18:24;;;;;;;19.48;11.55;;;;;;;-0.81;100.00;93251.09;5008972;28;20391;-78
2024/01/10 08:20:49;;;;;;;23.10;11.77;;;;;;;-0.81;100.00;93267.34;5011708;28;20509;-78
2024/01/10 08:23:15;;;;;;;21.27;12.48;;;;;;;-0.80;100.00;93268.13;5026591;28;20112;-78
2024/01/10 08:25:41;;;;;;;22.67;12.75;;;;;;;-0.80;100.00;93262.97;5028447;28;20048;-78
2024/01/10 08:28:07;;;;;;;20.58;12.55;;;;;;;-0.86;100.00;93256.84;5023792;28;20037;-78
2024/01/10 08:30:32;;;;;;;21.55;12.40;;;;;;;-0.72;100.00;93271.28;5026374;28;20037;-78
2024/01/10 08:32:59;;;;;;;19.23;11.02;;;;;;;-0.71;100.00;93270.28;5024353;28;20490;-79
2024/01/10 08:35:25;;;;;;;25.48;12.90;;;;;;;-0.76;100.00;93272.69;5020343;28;20029;-78
2024/01/10 08:37:50;;;;;;;23.70;11.00;;;;;;;-0.69;100.00;93280.38;5025345;28;20446;-79
2024/01/10 08:40:17;;;;;;;22.17;11.73;;;;;;;-0.75;100.00;93279.38;5031063;28;20052;-79
2024/01/10 08:42:42;;;;;;;21.83;11.48;;;;;;;-0.75;100.00;93279.38;5029107;28;20547;-79
2024/01/10 08:45:10;;;;;;;19.67;11.23;;;;;;;-0.70;100.00;93284.75;5023388;28;20041;-78
2024/01/10 08:47:37;;;;;;;23.63;11.57;;;;;;;-0.66;100.00;93287.69;5027195;28;20045;-79
2024/01/10 08:50:08;;;;;;;20.38;11.52;;;;;;;-0.66;100.00;93280.78;5030538;28;20489;-79
2024/01/10 08:52:35;;;;;;;18.50;10.25;;;;;;;-0.66;100.00;93280.78;5019954;28;20030;-78
2024/01/10 08:55:01;;;;;;;19.33;10.25;;;;;;;-0.63;100.00;93285.53;5021496;28;20050;-78
2024/01/10 08:57:27;;;;;;;19.65;10.40;;;;;;;-0.64;100.00;93290.88;5031259;28;20053;-79
2024/01/10 08:59:53;;;;;;;20.77;11.80;;;;;;;-0.70;100.00;93289.88;5031266;28;20116;-79
2024/01/10 09:02:19;;;;;;;26.48;11.27;;;;;;;-0.71;100.00;93283.16;5031260;28;20188;-79
2024/01/10 09:04:44;;;;;;;22.17;11.63;;;;;;;-0.62;100.00;93291.47;5028757;28;20044;-78
2024/01/10 09:07:10;;;;;;;21.15;11.07;;;;;;;-0.55;100.00;93294.03;5029488;28;20025;-79
2024/01/10 09:09:35;;;;;;;18.63;11.55;;;;;;;-0.47;100.00;93292.06;5028541;28;20069;-79
2024/01/10 09:12:01;;;;;;;21.48;11.02;;;;;;;-0.43;100.00;93289.88;5028317;28;20081;-78
2024/01/10 09:14:28;;;;;;;20.60;11.45;;;;;;;-0.44;100.00;93296.78;5030703;28;20045;-79
2024/01/10 09:16:54;;;;;;;19.33;10.77;;;;;;;-0.39;100.00;93296.19;5030498;28;20068;-79
2024/01/10 09:19:20;;;;;;;23.58;12.25;;;;;;;-0.38;100.00;93296.97;5029006;28;20033;-79
2024/01/10 09:21:45;;;;;;;22.50;11.25;;;;;;;-0.29;100.00;93296.59;5029096;28;20037;-79
2024/01/10 09:24:14;;;;;;;21.58;12.18;;;;;;;-0.18;100.00;93304.69;5029680;28;20648;-79
2024/01/10 09:26:40;;;;;;;17.35;9.30;;;;;;;-0.01;100.00;93308.44;5031214;28;20060;-78
2024/01/10 09:29:06;;;;;;;17.52;9.32;;;;;;;0.25;100.00;93306.78;5028841;28;20081;-78
2024/01/10 09:31:31;;;;;;;38.67;11.25;;;;;;;-0.01;100.00;93314.38;5029312;28;20045;-78
2024/01/10 09:33:57;;;;;;;19.88;12.13;;;;;;;-0.27;100.00;93315.22;5031227;28;20048;-79
2024/01/10 09:36:23;;;;;;;18.10;10.55;;;;;;;-0.44;100.00;93314.81;5031416;28;20524;-78
2024/01/10 09:38:48;;;;;;;21.60;12.27;;;;;;;-0.50;100.00;93318.16;5030307;28;20040;-79
2024/01/10 09:41:14;;;;;;;25.27;13.25;;;;;;;-0.56;100.00;93320.72;5021721;28;20045;-79
2024/01/10 09:43:40;;;;;;;35.85;14.43;;;;;;;-0.67;100.00;93322.91;5030500;28;20033;-79
2024/01/10 09:46:07;;;;;;;29.27;13.15;;;;;;;-0.72;100.00;93312.44;5029989;28;20044;-79
2024/01/10 09:48:33;;;;;;;20.65;12.77;;;;;;;-0.69;100.00;93324.09;5032958;28;20052;-78
2024/01/10 09:50:59;;;;;;;29.10;13.27;;;;;;;-0.76;100.00;93329.22;5034043;28;20053;-78
2024/01/10 09:53:26;;;;;;;43.10;13.55;;;;;;;-0.71;100.00;93326.06;5033202;28;20420;-79
2024/01/10 09:55:56;;;;;;;53.92;13.25;;;;;;;-0.77;100.00;93330.22;5034750;28;20034;-79
2024/01/10 09:58:26;;;;;;;17.95;9.18;;;;;;;-0.77;100.00;93330.22;5034464;28;20083;-79
2024/01/10 10:00:52;;;;;;;23.83;12.10;;;;;;;-0.89;100.00;93329.22;5030638;28;20041;-79
2024/01/10 10:03:19;;;;;;;22.48;12.32;;;;;;;-0.91;100.00;93333.75;5034824;28;20405;-79
2024/01/10 10:05:45;;;;;;;25.17;12.35;;;;;;;-0.99;100.00;93336.50;5032738;28;20029;-79
2024/01/10 10:08:14;;;;;;;25.27;12.90;;;;;;;-1.01;100.00;93339.28;5030658;28;20111;-79
2024/01/10 10:10:43;;;;;;;25.15;13.35;;;;;;;-0.92;100.00;93337.31;5032704;28;20079;-78
2024/01/10 10:13:12;;;;;;;26.20;14.02;;;;;;;-0.80;100.00;93345.25;5030118;28;20087;-79
2024/01/10 10:15:38;;;;;;;27.80;13.82;;;;;;;-0.73;100.00;93338.34;5033908;28;20076;-79
2024/01/10 10:18:03;;;;;;;25.92;14.60;;;;;;;-0.63;100.00;93341.31;5006424;28;20049;-79
2024/01/10 10:20:35;;;;;;;25.27;13.60;;;;;;;-0.57;100.00;93337.16;5034588;28;20038;-79
2024/01/10 10:23:06;;;;;;;24.08;13.02;;;;;;;-0.47;100.00;93345.28;5030394;28;20087;-78
2024/01/10 10:25:36;;;;;;;26.15;13.15;;;;;;;-0.44;100.00;93339.75;5030366;28;20029;-77
2024/01/10 10:28:03;;;;;;;25.13;12.55;;;;;;;-0.40;100.00;93338.38;5030052;28;20044;-78
2024/01/10 10:30:30;;;;;;;26.95;13.63;;;;;;;-0.35;100.00;93340.34;5033220;28;20228;-78
2024/01/10 10:32:56;;;;;;;25.55;12.60;;;;;;;-0.34;100.00;93340.13;5033970;28;20464;-79
2024/01/10 10:35:22;;;;;;;22.15;11.75;;;;;;;-0.32;100.00;93339.94;5032023;28;20045;-78
2024/01/10 10:37:54;;;;;;;20.85;12.00;;;;;;;-0.36;100.00;93334.41;5034040;28;20053;-79
2024/01/10 10:40:21;;;;;;;28.20;12.43;;;;;;;-0.25;100.00;93338.16;5030769;28;20128;-78
2024/01/10 10:42:57;;;;;;;22.92;12.20;;;;;;;-0.29;100.00;93337.78;5032661;28;20041;-78
2024/01/10 10:45:26;;;;;;;27.60;13.43;;;;;;;-0.30;100.00;93343.09;5032991;28;20389;-79
2024/01/10 10:48:00;;;;;;;19.40;11.52;;;;;;;-0.27;100.00;93337.56;5032690;28;20037;-79
2024/01/10 10:50:31;;;;;;;24.50;12.48;;;;;;;-0.33;100.00;93322.94;5033068;28;20376;-79
2024/01/10 10:52:58;;;;;;;25.75;12.65;;;;;;;-0.12;100.00;93332.22;5034537;28;20033;-78
2024/01/10 10:55:26;;;;;;;37.60;13.40;;;;;;;-0.24;100.00;93330.25;5032826;28;20037;-79
2024/01/10 10:57:53;;;;;;;23.38;10.70;;;;;;;-0.15;100.00;93333.41;5034633;28;20037;-79
2024/01/10 11:00:21;;;;;;;39.00;12.13;;;;;;;-0.33;100.00;93328.84;5034409;28;20071;-79
2024/01/10 11:02:47;;;;;;;21.75;12.60;;;;;;;-0.38;100.00;93328.66;5028464;28;20057;-78
2024/01/10 11:05:13;;;;;;;35.03;14.98;;;;;;;-0.40;100.00;93335.78;5033693;28;20060;-78